createdAt,value
2023-01-07T00:01:43.274Z,4.68
2023-01-07T00:04:16.095Z,3.20
2023-01-07T00:06:44.409Z,5.53
2023-01-07T00:09:17.487Z,6.03
2023-01-07T00:11:45.051Z,4.40
2023-01-07T00:14:13.596Z,4.47
2023-01-07T00:16:40.815Z,6.78
2023-01-07T00:19:10.415Z,6.32
2023-01-07T00:21:37.116Z,7.75
2023-01-07T00:24:06.188Z,6.00
2023-01-07T00:26:36.007Z,7.38
2023-01-07T00:29:03.745Z,8.07
2023-01-07T00:31:36.011Z,6.53
2023-01-07T00:34:02.818Z,7.07
2023-01-07T00:37:15.873Z,5.97
2023-01-07T00:39:42.561Z,7.30
2023-01-07T00:42:27.708Z,7.13
2023-01-07T00:45:00.493Z,7.03
2023-01-07T00:47:27.185Z,5.80
2023-01-07T00:49:53.906Z,7.15
2023-01-07T00:52:20.595Z,7.28
2023-01-07T00:54:47.252Z,6.40
2023-01-07T00:57:14.149Z,5.95
2023-01-07T00:59:40.831Z,6.00
2023-01-07T01:02:07.670Z,6.50
2023-01-07T01:04:34.629Z,6.15
2023-01-07T01:07:01.362Z,4.85
2023-01-07T01:09:28.109Z,5.13
2023-01-07T01:11:54.858Z,7.93
2023-01-07T01:14:21.608Z,6.78
2023-01-07T01:16:48.383Z,6.07
2023-01-07T01:19:15.808Z,7.03
2023-01-07T01:21:42.572Z,7.22
2023-01-07T01:24:09.586Z,7.32
2023-01-07T01:26:36.381Z,6.63
2023-01-07T01:29:03.098Z,6.03
2023-01-07T01:31:29.791Z,5.95
2023-01-07T01:33:57.630Z,6.80
2023-01-07T01:36:24.903Z,7.47
2023-01-07T01:38:51.603Z,6.38
2023-01-07T01:41:18.679Z,8.50
2023-01-07T01:43:46.253Z,7.20
2023-01-07T01:46:28.839Z,6.95
2023-01-07T01:49:02.033Z,6.77
2023-01-07T01:51:34.848Z,7.10
2023-01-07T01:54:06.367Z,6.57
2023-01-07T01:56:36.249Z,6.47
2023-01-07T01:59:10.680Z,7.07
2023-01-07T02:01:38.116Z,5.45
2023-01-07T02:04:09.929Z,7.53
2023-01-07T02:06:43.075Z,6.30
2023-01-07T02:12:13.642Z,5.78
2023-01-07T02:14:40.255Z,7.20
2023-01-07T02:17:19.388Z,8.25
2023-01-07T02:20:17.077Z,7.95
2023-01-07T02:22:58.449Z,7.40
2023-01-07T02:25:59.556Z,7.63
2023-01-07T02:28:41.438Z,7.70
2023-01-07T02:31:37.417Z,7.07
2023-01-07T02:34:22.460Z,7.75
2023-01-07T02:37:07.313Z,7.40
2023-01-07T02:39:47.630Z,9.13
2023-01-07T02:42:23.409Z,7.35
2023-01-07T02:45:20.411Z,6.70
2023-01-07T02:48:10.880Z,7.63
2023-01-07T02:50:37.804Z,7.18
2023-01-07T02:53:06.860Z,6.63
2023-01-07T02:55:58.855Z,8.95
2023-01-07T02:58:31.395Z,7.15
2023-01-07T03:01:13.345Z,7.78
2023-01-07T03:03:52.164Z,7.53
2023-01-07T03:06:49.834Z,7.88
2023-01-07T03:09:42.830Z,6.75
2023-01-07T03:12:27.495Z,7.55
2023-01-07T03:15:16.968Z,7.28
2023-01-07T03:17:52.070Z,7.85
2023-01-07T03:20:22.624Z,8.73
2023-01-07T03:22:50.407Z,6.43
2023-01-07T03:25:19.313Z,7.45
2023-01-07T03:27:47.607Z,6.57
2023-01-07T03:30:17.027Z,6.95
2023-01-07T03:33:07.904Z,7.57
2023-01-07T03:35:36.396Z,7.78
2023-01-07T03:38:04.597Z,7.57
2023-01-07T03:40:32.017Z,7.85
2023-01-07T03:42:59.752Z,7.00
2023-01-07T03:45:27.781Z,9.38
2023-01-07T03:47:56.242Z,8.35
2023-01-07T03:50:23.808Z,8.32
2023-01-07T03:52:51.237Z,8.20
2023-01-07T03:55:18.603Z,7.53
2023-01-07T03:57:45.289Z,8.98
2023-01-07T04:00:13.451Z,7.88
2023-01-07T04:02:40.181Z,8.88
2023-01-07T04:05:07.219Z,10.23
2023-01-07T04:07:33.978Z,7.88
2023-01-07T04:10:00.794Z,7.90
2023-01-07T04:12:27.460Z,8.40
2023-01-07T04:14:54.387Z,9.20
2023-01-07T04:17:21.102Z,8.65
2023-01-07T04:19:47.839Z,9.38
2023-01-07T04:22:14.704Z,8.90
2023-01-07T04:24:41.569Z,7.45
2023-01-07T04:27:08.278Z,8.40
2023-01-07T04:29:34.950Z,7.88
2023-01-07T04:32:01.668Z,9.27
2023-01-07T04:34:28.441Z,9.45
2023-01-07T04:36:55.295Z,7.82
2023-01-07T04:39:22.019Z,7.90
2023-01-07T04:41:48.698Z,8.40
2023-01-07T04:44:17.598Z,6.78
2023-01-07T04:46:44.973Z,7.32
2023-01-07T04:49:11.923Z,6.63
2023-01-07T04:51:38.871Z,8.27
2023-01-07T04:54:05.909Z,8.10
2023-01-07T04:56:32.809Z,7.47
2023-01-07T04:58:59.500Z,8.38
2023-01-07T05:01:26.299Z,6.57
2023-01-07T05:03:53.045Z,5.70
2023-01-07T05:06:19.806Z,6.35
2023-01-07T05:08:46.596Z,6.25
2023-01-07T05:11:14.095Z,6.50
2023-01-07T05:13:40.795Z,5.72
2023-01-07T05:16:09.132Z,5.07
2023-01-07T05:18:35.830Z,6.70
2023-01-07T05:21:02.479Z,4.95
2023-01-07T05:23:29.246Z,6.80
2023-01-07T05:25:55.943Z,6.78
2023-01-07T05:28:22.709Z,5.60
2023-01-07T05:30:49.485Z,6.70
2023-01-07T05:33:16.184Z,5.72
2023-01-07T05:35:42.876Z,5.13
2023-01-07T05:38:09.659Z,5.68
2023-01-07T05:40:36.316Z,6.35
2023-01-07T05:43:03.028Z,4.65
2023-01-07T05:45:29.719Z,5.72
2023-01-07T05:47:56.374Z,5.15
2023-01-07T05:50:23.112Z,4.93
2023-01-07T05:52:51.363Z,4.80
2023-01-07T05:55:18.151Z,5.28
2023-01-07T05:57:44.816Z,6.22
2023-01-07T06:00:12.198Z,4.63
2023-01-07T06:02:38.886Z,5.25
2023-01-07T06:05:06.026Z,5.45
2023-01-07T06:07:32.794Z,4.10
2023-01-07T06:10:00.802Z,3.97
2023-01-07T06:12:29.405Z,4.03
2023-01-07T06:14:56.116Z,3.67
2023-01-07T06:17:22.816Z,4.47
2023-01-07T06:19:49.639Z,3.72
2023-01-07T06:22:16.453Z,3.88
2023-01-07T06:24:43.149Z,4.28
2023-01-07T06:27:10.679Z,4.28
2023-01-07T06:29:37.399Z,4.05
2023-01-07T06:32:04.294Z,3.90
2023-01-07T06:34:30.975Z,4.53
2023-01-07T06:36:57.712Z,4.68
2023-01-07T06:39:24.423Z,4.40
2023-01-07T06:41:51.113Z,5.07
2023-01-07T06:44:17.870Z,4.57
2023-01-07T06:46:44.616Z,4.47
2023-01-07T06:49:11.478Z,4.22
2023-01-07T06:51:38.492Z,3.38
2023-01-07T06:54:05.287Z,3.92
2023-01-07T06:56:32.036Z,4.13
2023-01-07T06:58:58.734Z,3.53
2023-01-07T07:01:25.578Z,3.15
2023-01-07T07:03:52.541Z,3.30
2023-01-07T07:06:19.300Z,3.40
2023-01-07T07:08:45.979Z,3.20
2023-01-07T07:11:12.688Z,2.88
2023-01-07T07:13:39.411Z,2.95
2023-01-07T07:16:06.536Z,2.45
2023-01-07T07:18:33.261Z,3.22
2023-01-07T07:21:00.009Z,3.75
2023-01-07T07:23:26.781Z,3.75
2023-01-07T07:25:53.489Z,4.35
2023-01-07T07:28:20.230Z,4.90
2023-01-07T07:30:48.058Z,4.43
2023-01-07T07:33:15.711Z,4.63
2023-01-07T07:35:42.603Z,5.10
2023-01-07T07:38:09.534Z,4.68
2023-01-07T07:40:36.599Z,4.05
2023-01-07T07:43:10.191Z,2.95
2023-01-07T07:45:38.781Z,4.40
2023-01-07T07:48:07.435Z,3.45
2023-01-07T07:50:34.484Z,3.80
2023-01-07T07:53:01.214Z,3.80
2023-01-07T07:55:28.280Z,3.53
2023-01-07T07:57:56.439Z,2.88
2023-01-07T08:00:23.517Z,2.90
2023-01-07T08:02:50.879Z,3.47
2023-01-07T08:05:17.775Z,2.35
2023-01-07T08:07:44.538Z,2.47
2023-01-07T08:10:11.339Z,2.53
2023-01-07T08:12:39.057Z,2.92
2023-01-07T08:15:07.348Z,2.30
2023-01-07T08:17:34.216Z,2.42
2023-01-07T08:20:01.297Z,1.70
2023-01-07T08:22:27.992Z,1.80
2023-01-07T08:24:54.741Z,1.73
2023-01-07T08:27:24.262Z,1.77
2023-01-07T08:29:51.332Z,2.00
2023-01-07T08:32:18.320Z,1.73
2023-01-07T08:34:44.983Z,1.70
2023-01-07T08:37:12.131Z,1.73
2023-01-07T08:39:38.818Z,1.65
2023-01-07T08:42:05.762Z,2.30
2023-01-07T08:44:35.461Z,2.22
2023-01-07T08:47:05.359Z,1.92
2023-01-07T08:49:32.121Z,1.80
2023-01-07T08:51:58.948Z,2.28
2023-01-07T08:54:28.504Z,2.78
2023-01-07T08:56:55.330Z,1.90
2023-01-07T08:59:22.316Z,2.40
2023-01-07T09:01:49.158Z,2.67
2023-01-07T09:04:15.949Z,1.63
2023-01-07T09:06:42.949Z,2.20
2023-01-07T09:09:10.509Z,3.65
2023-01-07T09:11:40.613Z,2.30
2023-01-07T09:14:10.093Z,2.30
2023-01-07T09:16:36.848Z,2.45
2023-01-07T09:19:06.704Z,2.20
2023-01-07T09:21:33.451Z,1.85
2023-01-07T09:24:03.009Z,2.05
2023-01-07T09:26:29.730Z,1.55
2023-01-07T09:28:56.969Z,1.95
2023-01-07T09:31:24.126Z,1.70
2023-01-07T09:33:51.270Z,2.13
2023-01-07T09:36:17.998Z,2.10
2023-01-07T09:38:45.322Z,1.67
2023-01-07T09:41:40.254Z,1.77
2023-01-07T09:44:39.832Z,2.28
2023-01-07T09:47:09.347Z,1.30
2023-01-07T09:49:42.543Z,1.70
2023-01-07T09:52:17.432Z,2.20
2023-01-07T09:54:48.603Z,1.95
2023-01-07T09:57:18.033Z,1.70
2023-01-07T09:59:45.712Z,2.33
2023-01-07T10:02:38.761Z,2.90
2023-01-07T10:05:20.203Z,1.70
2023-01-07T10:08:31.468Z,2.53
2023-01-07T10:14:17.112Z,2.08
2023-01-07T10:17:04.773Z,1.63
2023-01-07T10:19:47.747Z,1.80
2023-01-07T10:22:39.343Z,2.03
2023-01-07T10:25:26.000Z,3.03
2023-01-07T10:27:54.801Z,1.77
2023-01-07T10:30:29.127Z,2.50
2023-01-07T10:33:16.392Z,1.92
2023-01-07T10:35:43.122Z,2.38
2023-01-07T10:38:18.785Z,1.98
2023-01-07T10:41:02.188Z,2.13
2023-01-07T10:46:17.137Z,1.60
2023-01-07T10:49:11.098Z,1.40
2023-01-07T10:52:04.408Z,1.58
2023-01-07T10:54:31.101Z,2.22
2023-01-07T10:57:03.700Z,1.55
2023-01-07T10:59:30.790Z,1.48
2023-01-07T11:01:59.487Z,1.65
2023-01-07T11:04:26.677Z,1.42
2023-01-07T11:07:29.040Z,1.60
2023-01-07T11:09:57.242Z,1.20
2023-01-07T11:12:46.654Z,1.30
2023-01-07T11:15:19.304Z,1.70
2023-01-07T11:17:54.200Z,1.45
2023-01-07T11:20:48.883Z,1.58
2023-01-07T11:23:44.216Z,1.90
2023-01-07T11:26:32.415Z,1.35
2023-01-07T11:29:13.910Z,2.08
2023-01-07T11:31:51.046Z,1.70
2023-01-07T11:34:37.325Z,1.80
2023-01-07T11:37:05.087Z,2.08
2023-01-07T11:39:36.324Z,1.70
2023-01-07T11:42:34.515Z,2.13
2023-01-07T11:45:13.826Z,1.98
2023-01-07T11:47:48.469Z,2.35
2023-01-07T11:50:29.486Z,1.65
2023-01-07T11:53:02.617Z,1.70
2023-01-07T11:55:29.696Z,1.80
2023-01-07T11:58:28.341Z,1.58
2023-01-07T12:00:44.191Z,1.40
2023-01-07T12:03:13.219Z,1.50
2023-01-07T12:05:44.477Z,1.88
2023-01-07T12:08:22.797Z,1.33
2023-01-07T12:11:05.978Z,1.67
2023-01-07T12:13:34.523Z,2.00
2023-01-07T12:16:05.313Z,1.50
2023-01-07T12:18:54.624Z,1.58
2023-01-07T12:21:27.520Z,1.95
2023-01-07T12:24:03.201Z,1.60
2023-01-07T12:26:38.876Z,1.98
2023-01-07T12:29:48.006Z,1.52
2023-01-07T12:32:29.826Z,1.83
2023-01-07T12:35:16.090Z,1.20
2023-01-07T12:37:53.727Z,1.08
2023-01-07T12:40:33.029Z,1.35
2023-01-07T12:43:13.554Z,1.30
2023-01-07T12:45:50.020Z,1.02
2023-01-07T12:48:27.393Z,1.08
2023-01-07T12:50:57.362Z,1.17
2023-01-07T12:53:34.366Z,1.00
2023-01-07T12:56:07.221Z,1.02
2023-01-07T12:58:45.145Z,1.23
2023-01-07T13:01:22.450Z,1.08
2023-01-07T13:03:58.383Z,1.20
2023-01-07T13:06:46.881Z,1.15
2023-01-07T13:09:20.740Z,1.30
2023-01-07T13:12:41.464Z,1.27
2023-01-07T13:15:05.560Z,1.20
2023-01-07T13:17:32.595Z,1.08
2023-01-07T13:19:59.265Z,1.00
2023-01-07T13:22:54.031Z,1.20
2023-01-07T13:25:47.689Z,1.10
2023-01-07T13:31:08.435Z,1.23
2023-01-07T13:33:58.262Z,1.00
2023-01-07T13:36:51.045Z,1.10
2023-01-07T13:39:44.181Z,1.03
2023-01-07T13:42:27.359Z,1.45
2023-01-07T13:45:14.696Z,1.55
2023-01-07T13:47:51.513Z,2.63
2023-01-07T13:50:41.972Z,1.63
2023-01-07T13:53:14.669Z,1.50
2023-01-07T13:55:44.347Z,1.60
2023-01-07T13:58:29.395Z,1.88
2023-01-07T14:01:20.046Z,1.45
2023-01-07T14:03:49.932Z,1.88
2023-01-07T14:06:32.210Z,1.67
2023-01-07T14:08:58.874Z,1.95
2023-01-07T14:11:32.657Z,2.10
2023-01-07T14:14:21.148Z,1.42
2023-01-07T14:16:53.820Z,1.40
2023-01-07T14:19:23.479Z,1.60
2023-01-07T14:21:59.117Z,1.48
2023-01-07T14:25:03.307Z,2.10
2023-01-07T14:27:45.159Z,1.48
2023-01-07T14:30:37.338Z,1.45
2023-01-07T14:33:16.663Z,1.30
2023-01-07T14:35:52.782Z,1.33
2023-01-07T14:38:47.016Z,1.77
2023-01-07T14:41:16.632Z,1.70
2023-01-07T14:43:46.116Z,2.15
2023-01-07T14:46:24.774Z,1.50
2023-01-07T14:49:03.764Z,1.63
2023-01-07T14:51:36.229Z,1.90
2023-01-07T14:54:40.361Z,1.77
2023-01-07T14:57:20.810Z,1.65
2023-01-07T14:59:56.457Z,1.60
2023-01-07T15:02:47.655Z,1.30
2023-01-07T15:05:39.203Z,1.85
2023-01-07T15:08:29.465Z,2.45
2023-01-07T15:11:17.925Z,1.33
2023-01-07T15:14:14.703Z,1.65
2023-01-07T15:16:43.575Z,1.48
2023-01-07T15:19:10.612Z,1.50
2023-01-07T15:21:52.458Z,2.00
2023-01-07T15:24:37.663Z,1.98
2023-01-07T15:27:16.326Z,3.10
2023-01-07T15:29:55.077Z,3.05
2023-01-07T15:32:27.768Z,5.57
2023-01-07T15:34:54.626Z,5.10
2023-01-07T15:37:21.775Z,6.32
2023-01-07T15:39:53.720Z,4.75
2023-01-07T15:42:23.638Z,4.60
2023-01-07T15:44:58.472Z,3.25
2023-01-07T15:47:33.867Z,3.60
2023-01-07T15:50:21.537Z,2.97
2023-01-07T15:53:00.170Z,3.20
2023-01-07T15:55:28.577Z,2.72
2023-01-07T15:58:12.750Z,2.95
2023-01-07T16:00:39.594Z,3.42
2023-01-07T16:03:06.423Z,2.92
2023-01-07T16:05:37.023Z,3.17
2023-01-07T16:08:03.976Z,2.10
2023-01-07T16:10:33.364Z,2.30
2023-01-07T16:13:01.430Z,2.35
2023-01-07T16:15:34.015Z,2.40
2023-01-07T16:18:03.835Z,2.20
2023-01-07T16:20:34.989Z,3.55
2023-01-07T16:23:11.031Z,2.88
2023-01-07T16:25:45.779Z,3.38
2023-01-07T16:28:19.566Z,3.60
2023-01-07T16:30:47.830Z,3.70
2023-01-07T16:33:17.537Z,2.58
2023-01-07T16:35:46.664Z,3.03
2023-01-07T16:38:15.635Z,2.33
2023-01-07T16:40:42.857Z,3.30
2023-01-07T16:43:28.226Z,2.88
2023-01-07T16:46:09.479Z,4.93
2023-01-07T16:48:36.257Z,4.18
2023-01-07T16:51:02.988Z,3.83
2023-01-07T16:53:33.507Z,3.50
2023-01-07T16:56:12.474Z,4.25
2023-01-07T16:58:53.807Z,3.40
2023-01-07T17:01:34.351Z,3.40
2023-01-07T17:04:08.189Z,4.13
2023-01-07T17:06:43.413Z,4.00
2023-01-07T17:09:26.588Z,3.75
2023-01-07T17:11:54.793Z,4.82
2023-01-07T17:14:33.824Z,4.43
2023-01-07T17:17:18.497Z,4.97
2023-01-07T17:20:12.582Z,3.35
2023-01-07T17:22:40.064Z,3.55
2023-01-07T17:25:13.081Z,4.45
2023-01-07T17:27:57.365Z,5.10
2023-01-07T17:30:30.741Z,3.72
2023-01-07T17:32:57.519Z,3.83
2023-01-07T17:35:25.547Z,4.30
2023-01-07T17:37:53.278Z,4.40
2023-01-07T17:40:20.748Z,4.32
2023-01-07T17:43:08.399Z,5.40
2023-01-07T17:45:35.469Z,3.78
2023-01-07T17:48:02.325Z,3.60
2023-01-07T17:50:36.592Z,3.70
2023-01-07T17:53:04.285Z,3.72
2023-01-07T17:55:34.635Z,3.80
2023-01-07T17:58:01.636Z,3.88
2023-01-07T18:00:31.074Z,4.53
2023-01-07T18:02:58.337Z,3.80
2023-01-07T18:05:26.500Z,4.22
2023-01-07T18:07:53.529Z,3.60
2023-01-07T18:10:24.626Z,3.45
2023-01-07T18:12:51.351Z,3.63
2023-01-07T18:15:26.030Z,4.63
2023-01-07T18:17:53.518Z,3.58
2023-01-07T18:20:21.222Z,2.65
2023-01-07T18:22:48.185Z,2.42
2023-01-07T18:25:20.203Z,2.50
2023-01-07T18:27:47.784Z,2.55
2023-01-07T18:30:17.716Z,2.58
2023-01-07T18:32:44.999Z,2.75
2023-01-07T18:35:12.640Z,2.83
2023-01-07T18:37:39.872Z,4.68
2023-01-07T18:40:08.143Z,3.55
2023-01-07T18:42:35.571Z,2.60
2023-01-07T18:45:02.691Z,3.83
2023-01-07T18:47:29.818Z,3.40
2023-01-07T18:49:56.697Z,3.45
2023-01-07T18:52:24.100Z,2.92
2023-01-07T18:54:50.895Z,3.22
2023-01-07T18:57:17.664Z,3.30
2023-01-07T18:59:44.685Z,4.78
2023-01-07T19:02:17.153Z,3.38
2023-01-07T19:04:43.931Z,3.30
2023-01-07T19:07:10.841Z,3.03
2023-01-07T19:09:37.639Z,3.08
2023-01-07T19:12:05.801Z,3.10
2023-01-07T19:14:33.313Z,3.65
2023-01-07T19:17:00.339Z,3.25
2023-01-07T19:19:32.053Z,3.55
2023-01-07T19:22:00.933Z,3.50
2023-01-07T19:24:27.660Z,3.13
2023-01-07T19:26:54.481Z,3.45
2023-01-07T19:29:21.193Z,3.95
2023-01-07T19:31:48.173Z,3.08
2023-01-07T19:34:15.469Z,3.05
2023-01-07T19:36:46.651Z,3.53
2023-01-07T19:39:18.205Z,3.60
2023-01-07T19:41:44.971Z,3.95
2023-01-07T19:44:12.527Z,4.28
2023-01-07T19:46:40.651Z,3.03
2023-01-07T19:49:08.370Z,4.78
2023-01-07T19:51:36.764Z,3.92
2023-01-07T19:54:04.482Z,4.05
2023-01-07T19:56:31.788Z,3.08
2023-01-07T19:58:59.720Z,3.78
2023-01-07T20:01:28.637Z,2.80
2023-01-07T20:03:57.642Z,5.57
2023-01-07T20:06:29.902Z,4.57
2023-01-07T20:08:58.322Z,4.77
2023-01-07T20:11:25.375Z,4.22
2023-01-07T20:13:52.516Z,4.15
2023-01-07T20:16:22.197Z,4.40
2023-01-07T20:18:51.638Z,4.93
2023-01-07T20:21:21.068Z,3.28
2023-01-07T20:23:48.289Z,4.43
2023-01-07T20:26:18.334Z,3.78
2023-01-07T20:28:45.086Z,3.95
2023-01-07T20:31:14.677Z,3.67
2023-01-07T20:33:42.426Z,3.42
2023-01-07T20:36:20.369Z,3.20
2023-01-07T20:38:48.049Z,3.50
2023-01-07T20:41:24.172Z,3.30
2023-01-07T20:43:53.537Z,3.13
2023-01-07T20:46:21.335Z,3.75
2023-01-07T20:48:48.882Z,4.57
2023-01-07T20:51:16.820Z,3.70
2023-01-07T20:53:44.323Z,4.05
2023-01-07T20:56:12.507Z,3.75
2023-01-07T20:58:40.014Z,4.03
2023-01-07T21:01:10.322Z,4.07
2023-01-07T21:03:39.044Z,3.53
2023-01-07T21:06:09.714Z,3.53
2023-01-07T21:08:37.063Z,5.53
2023-01-07T21:11:04.574Z,6.65
2023-01-07T21:13:31.545Z,4.05
2023-01-07T21:16:05.899Z,3.53
2023-01-07T21:18:37.406Z,3.83
2023-01-07T21:21:11.135Z,3.75
2023-01-07T21:23:41.296Z,3.67
2023-01-07T21:26:09.308Z,3.92
2023-01-07T21:28:36.766Z,4.70
2023-01-07T21:31:06.483Z,4.78
2023-01-07T21:33:33.413Z,3.28
2023-01-07T21:36:00.237Z,3.53
2023-01-07T21:38:27.410Z,4.70
2023-01-07T21:40:54.203Z,2.92
2023-01-07T21:43:20.936Z,3.20
2023-01-07T21:45:47.818Z,4.80
2023-01-07T21:48:14.576Z,4.40
2023-01-07T21:50:41.326Z,3.55
2023-01-07T21:53:08.277Z,3.30
2023-01-07T21:55:38.536Z,4.38
2023-01-07T21:58:05.250Z,4.43
2023-01-07T22:00:31.990Z,3.88
2023-01-07T22:02:58.644Z,4.32
2023-01-07T22:05:25.312Z,4.32
2023-01-07T22:07:52.071Z,3.97
2023-01-07T22:10:18.802Z,4.43
2023-01-07T22:12:45.456Z,5.30
2023-01-07T22:15:12.167Z,5.20
2023-01-07T22:17:39.246Z,4.60
2023-01-07T22:20:06.638Z,4.57
2023-01-07T22:22:35.615Z,4.38
2023-01-07T22:25:04.045Z,4.90
2023-01-07T22:27:30.844Z,4.43
2023-01-07T22:29:58.097Z,4.18
2023-01-07T22:32:24.788Z,4.45
2023-01-07T22:34:51.495Z,4.30
2023-01-07T22:37:20.999Z,4.57
2023-01-07T22:39:54.181Z,4.95
2023-01-07T22:44:56.542Z,4.50
2023-01-07T22:47:29.661Z,3.63
2023-01-07T22:49:57.132Z,4.10
2023-01-07T22:52:23.823Z,3.58
2023-01-07T22:54:50.658Z,3.67
2023-01-07T22:57:17.415Z,2.95
2023-01-07T22:59:46.283Z,3.50
2023-01-07T23:02:13.871Z,3.80
2023-01-07T23:04:40.585Z,3.33
2023-01-07T23:07:07.713Z,3.40
2023-01-07T23:09:34.479Z,3.55
2023-01-07T23:12:01.582Z,3.78
2023-01-07T23:14:32.689Z,3.85
2023-01-07T23:17:02.859Z,4.53
2023-01-07T23:19:32.437Z,3.90
2023-01-07T23:21:59.372Z,3.60
2023-01-07T23:24:26.182Z,3.88
2023-01-07T23:26:54.512Z,3.78
2023-01-07T23:29:22.066Z,3.60
2023-01-07T23:31:49.632Z,4.18
2023-01-07T23:34:19.845Z,4.75
2023-01-07T23:36:46.562Z,4.15
2023-01-07T23:39:13.344Z,4.22
2023-01-07T23:41:43.279Z,3.97
2023-01-07T23:44:10.070Z,7.22
2023-01-07T23:46:37.378Z,5.95
2023-01-07T23:49:04.158Z,4.85
2023-01-07T23:51:30.882Z,4.95
2023-01-07T23:53:57.621Z,4.30
2023-01-07T23:56:24.339Z,4.45
2023-01-07T23:58:51.098Z,4.00
